sensor_id;sensor_type;location;lat;lon;timestamp;temperature;humidity
19060;DHT22;9663;48.996;8.334;2023-07-22T00:00:50;20.10;51.40
19060;DHT22;9663;48.996;8.334;2023-07-22T00:03:16;20.10;51.40
19060;DHT22;9663;48.996;8.334;2023-07-22T00:05:42;20.10;51.40
19060;DHT22;9663;48.996;8.334;2023-07-22T00:08:09;20.20;52.20
19060;DHT22;9663;48.996;8.334;2023-07-22T00:10:34;20.20;51.60
19060;DHT22;9663;48.996;8.334;2023-07-22T00:13:00;20.20;51.60
19060;DHT22;9663;48.996;8.334;2023-07-22T00:15:26;20.20;51.60
19060;DHT22;9663;48.996;8.334;2023-07-22T00:17:52;20.20;51.60
19060;DHT22;9663;48.996;8.334;2023-07-22T00:20:18;20.20;51.60
19060;DHT22;9663;48.996;8.334;2023-07-22T00:22:45;20.20;51.70
19060;DHT22;9663;48.996;8.334;2023-07-22T00:25:11;20.20;51.70
19060;DHT22;9663;48.996;8.334;2023-07-22T00:27:39;20.20;51.70
19060;DHT22;9663;48.996;8.334;2023-07-22T00:30:07;20.20;51.70
19060;DHT22;9663;48.996;8.334;2023-07-22T00:32:33;20.10;51.70
19060;DHT22;9663;48.996;8.334;2023-07-22T00:35:03;20.10;51.70
19060;DHT22;9663;48.996;8.334;2023-07-22T00:37:32;20.00;51.70
19060;DHT22;9663;48.996;8.334;2023-07-22T00:39:58;20.00;51.80
19060;DHT22;9663;48.996;8.334;2023-07-22T00:42:24;19.90;52.50
19060;DHT22;9663;48.996;8.334;2023-07-22T00:44:50;19.90;52.00
19060;DHT22;9663;48.996;8.334;2023-07-22T00:47:16;19.90;52.10
19060;DHT22;9663;48.996;8.334;2023-07-22T00:49:43;19.80;52.10
19060;DHT22;9663;48.996;8.334;2023-07-22T00:52:10;19.80;52.10
19060;DHT22;9663;48.996;8.334;2023-07-22T00:54:36;19.80;52.10
19060;DHT22;9663;48.996;8.334;2023-07-22T00:57:02;19.70;52.10
19060;DHT22;9663;48.996;8.334;2023-07-22T00:59:28;19.70;52.20
19060;DHT22;9663;48.996;8.334;2023-07-22T01:01:54;19.60;52.20
19060;DHT22;9663;48.996;8.334;2023-07-22T01:04:20;19.60;52.30
19060;DHT22;9663;48.996;8.334;2023-07-22T01:06:49;19.50;52.40
19060;DHT22;9663;48.996;8.334;2023-07-22T01:09:17;19.50;52.60
19060;DHT22;9663;48.996;8.334;2023-07-22T01:11:44;19.40;52.50
19060;DHT22;9663;48.996;8.334;2023-07-22T01:14:10;19.40;52.60
19060;DHT22;9663;48.996;8.334;2023-07-22T01:16:36;19.40;52.70
19060;DHT22;9663;48.996;8.334;2023-07-22T01:19:03;19.30;52.70
19060;DHT22;9663;48.996;8.334;2023-07-22T01:21:31;19.30;52.90
19060;DHT22;9663;48.996;8.334;2023-07-22T01:23:58;19.30;53.00
19060;DHT22;9663;48.996;8.334;2023-07-22T01:26:24;19.30;53.10
19060;DHT22;9663;48.996;8.334;2023-07-22T01:28:50;19.20;53.00
19060;DHT22;9663;48.996;8.334;2023-07-22T01:31:15;19.20;53.10
19060;DHT22;9663;48.996;8.334;2023-07-22T01:33:41;19.20;53.20
19060;DHT22;9663;48.996;8.334;2023-07-22T01:36:07;19.20;53.20
19060;DHT22;9663;48.996;8.334;2023-07-22T01:38:33;19.20;53.20
19060;DHT22;9663;48.996;8.334;2023-07-22T01:41:01;19.20;53.30
19060;DHT22;9663;48.996;8.334;2023-07-22T01:43:26;19.20;53.30
19060;DHT22;9663;48.996;8.334;2023-07-22T01:45:52;19.10;53.20
19060;DHT22;9663;48.996;8.334;2023-07-22T01:48:18;19.10;53.30
19060;DHT22;9663;48.996;8.334;2023-07-22T01:50:44;19.00;53.30
19060;DHT22;9663;48.996;8.334;2023-07-22T01:53:10;19.00;53.40
19060;DHT22;9663;48.996;8.334;2023-07-22T01:55:36;19.00;53.50
19060;DHT22;9663;48.996;8.334;2023-07-22T01:58:02;19.00;53.60
19060;DHT22;9663;48.996;8.334;2023-07-22T02:00:28;19.00;53.70
19060;DHT22;9663;48.996;8.334;2023-07-22T02:02:53;19.00;53.70
19060;DHT22;9663;48.996;8.334;2023-07-22T02:05:19;18.90;53.80
19060;DHT22;9663;48.996;8.334;2023-07-22T02:07:46;18.90;53.80
19060;DHT22;9663;48.996;8.334;2023-07-22T02:10:11;18.90;53.80
19060;DHT22;9663;48.996;8.334;2023-07-22T02:12:37;18.90;53.80
19060;DHT22;9663;48.996;8.334;2023-07-22T02:15:03;18.90;53.90
19060;DHT22;9663;48.996;8.334;2023-07-22T02:17:29;18.80;53.80
19060;DHT22;9663;48.996;8.334;2023-07-22T02:19:56;18.80;53.90
19060;DHT22;9663;48.996;8.334;2023-07-22T02:22:22;18.80;53.90
19060;DHT22;9663;48.996;8.334;2023-07-22T02:24:47;18.80;53.90
19060;DHT22;9663;48.996;8.334;2023-07-22T02:27:13;18.70;53.90
19060;DHT22;9663;48.996;8.334;2023-07-22T02:29:39;18.70;54.00
19060;DHT22;9663;48.996;8.334;2023-07-22T02:32:05;18.70;54.00
19060;DHT22;9663;48.996;8.334;2023-07-22T02:34:31;18.70;54.10
19060;DHT22;9663;48.996;8.334;2023-07-22T02:36:57;18.70;54.20
19060;DHT22;9663;48.996;8.334;2023-07-22T02:39:23;18.70;54.20
19060;DHT22;9663;48.996;8.334;2023-07-22T02:41:48;18.60;54.20
19060;DHT22;9663;48.996;8.334;2023-07-22T02:44:14;18.70;54.30
19060;DHT22;9663;48.996;8.334;2023-07-22T02:46:40;18.60;54.30
19060;DHT22;9663;48.996;8.334;2023-07-22T02:49:06;18.60;54.20
19060;DHT22;9663;48.996;8.334;2023-07-22T02:51:32;18.60;54.30
19060;DHT22;9663;48.996;8.334;2023-07-22T02:53:58;18.60;54.40
19060;DHT22;9663;48.996;8.334;2023-07-22T02:56:23;18.50;54.40
19060;DHT22;9663;48.996;8.334;2023-07-22T02:58:50;18.50;54.50
19060;DHT22;9663;48.996;8.334;2023-07-22T03:01:16;18.40;54.50
19060;DHT22;9663;48.996;8.334;2023-07-22T03:03:41;18.40;54.60
19060;DHT22;9663;48.996;8.334;2023-07-22T03:06:07;18.40;54.60
19060;DHT22;9663;48.996;8.334;2023-07-22T03:08:35;18.30;54.70
19060;DHT22;9663;48.996;8.334;2023-07-22T03:11:01;18.30;54.70
19060;DHT22;9663;48.996;8.334;2023-07-22T03:13:27;18.30;54.80
19060;DHT22;9663;48.996;8.334;2023-07-22T03:15:56;18.30;54.80
19060;DHT22;9663;48.996;8.334;2023-07-22T03:18:22;18.30;54.90
19060;DHT22;9663;48.996;8.334;2023-07-22T03:20:49;18.20;54.90
19060;DHT22;9663;48.996;8.334;2023-07-22T03:23:14;18.20;55.00
19060;DHT22;9663;48.996;8.334;2023-07-22T03:25:40;18.20;55.00
19060;DHT22;9663;48.996;8.334;2023-07-22T03:28:06;18.20;55.00
19060;DHT22;9663;48.996;8.334;2023-07-22T03:30:33;18.10;55.70
19060;DHT22;9663;48.996;8.334;2023-07-22T03:32:59;18.10;55.10
19060;DHT22;9663;48.996;8.334;2023-07-22T03:35:26;18.10;55.10
19060;DHT22;9663;48.996;8.334;2023-07-22T03:37:52;18.10;55.20
19060;DHT22;9663;48.996;8.334;2023-07-22T03:40:18;18.10;55.30
19060;DHT22;9663;48.996;8.334;2023-07-22T03:42:49;18.00;55.30
19060;DHT22;9663;48.996;8.334;2023-07-22T03:45:17;18.00;55.60
19060;DHT22;9663;48.996;8.334;2023-07-22T03:47:44;18.00;55.40
19060;DHT22;9663;48.996;8.334;2023-07-22T03:50:11;18.00;55.50
19060;DHT22;9663;48.996;8.334;2023-07-22T03:52:37;18.00;55.50
19060;DHT22;9663;48.996;8.334;2023-07-22T03:55:03;18.00;55.60
19060;DHT22;9663;48.996;8.334;2023-07-22T03:57:31;18.00;55.60
19060;DHT22;9663;48.996;8.334;2023-07-22T03:59:57;17.90;55.60
19060;DHT22;9663;48.996;8.334;2023-07-22T04:02:23;18.00;55.60
19060;DHT22;9663;48.996;8.334;2023-07-22T04:04:54;17.90;55.60
19060;DHT22;9663;48.996;8.334;2023-07-22T04:07:20;17.90;55.80
19060;DHT22;9663;48.996;8.334;2023-07-22T04:09:47;17.90;55.70
19060;DHT22;9663;48.996;8.334;2023-07-22T04:12:13;17.90;55.80
19060;DHT22;9663;48.996;8.334;2023-07-22T04:14:39;17.80;55.80
19060;DHT22;9663;48.996;8.334;2023-07-22T04:17:06;17.80;55.90
19060;DHT22;9663;48.996;8.334;2023-07-22T04:19:32;17.80;56.00
19060;DHT22;9663;48.996;8.334;2023-07-22T04:21:58;17.80;56.00
19060;DHT22;9663;48.996;8.334;2023-07-22T04:24:24;17.80;56.00
19060;DHT22;9663;48.996;8.334;2023-07-22T04:26:53;17.80;56.70
19060;DHT22;9663;48.996;8.334;2023-07-22T04:29:19;17.80;56.10
19060;DHT22;9663;48.996;8.334;2023-07-22T04:31:46;17.70;56.00
19060;DHT22;9663;48.996;8.334;2023-07-22T04:34:12;17.70;56.10
19060;DHT22;9663;48.996;8.334;2023-07-22T04:36:39;17.70;56.20
19060;DHT22;9663;48.996;8.334;2023-07-22T04:39:04;17.70;56.20
19060;DHT22;9663;48.996;8.334;2023-07-22T04:41:31;17.70;56.30
19060;DHT22;9663;48.996;8.334;2023-07-22T04:43:58;17.60;56.40
19060;DHT22;9663;48.996;8.334;2023-07-22T04:46:27;17.70;56.60
19060;DHT22;9663;48.996;8.334;2023-07-22T04:48:56;17.70;56.60
19060;DHT22;9663;48.996;8.334;2023-07-22T04:51:23;17.70;56.90
19060;DHT22;9663;48.996;8.334;2023-07-22T04:53:49;17.80;56.80
19060;DHT22;9663;48.996;8.334;2023-07-22T04:56:15;17.80;56.80
19060;DHT22;9663;48.996;8.334;2023-07-22T04:58:41;17.90;56.90
19060;DHT22;9663;48.996;8.334;2023-07-22T05:01:07;17.90;56.90
19060;DHT22;9663;48.996;8.334;2023-07-22T05:03:35;18.00;57.00
19060;DHT22;9663;48.996;8.334;2023-07-22T05:06:01;18.10;57.00
19060;DHT22;9663;48.996;8.334;2023-07-22T05:08:27;18.20;57.00
19060;DHT22;9663;48.996;8.334;2023-07-22T05:10:53;18.30;57.00
19060;DHT22;9663;48.996;8.334;2023-07-22T05:13:18;18.30;57.00
19060;DHT22;9663;48.996;8.334;2023-07-22T05:15:45;18.40;57.00
19060;DHT22;9663;48.996;8.334;2023-07-22T05:18:10;18.50;56.90
19060;DHT22;9663;48.996;8.334;2023-07-22T05:20:38;18.60;56.90
19060;DHT22;9663;48.996;8.334;2023-07-22T05:23:04;18.60;56.90
19060;DHT22;9663;48.996;8.334;2023-07-22T05:25:30;18.80;57.60
19060;DHT22;9663;48.996;8.334;2023-07-22T05:27:56;18.80;56.80
19060;DHT22;9663;48.996;8.334;2023-07-22T05:30:21;19.00;56.80
19060;DHT22;9663;48.996;8.334;2023-07-22T05:32:47;19.10;56.80
19060;DHT22;9663;48.996;8.334;2023-07-22T05:35:13;19.20;56.80
19060;DHT22;9663;48.996;8.334;2023-07-22T05:37:39;19.30;56.60
19060;DHT22;9663;48.996;8.334;2023-07-22T05:40:05;19.40;56.50
19060;DHT22;9663;48.996;8.334;2023-07-22T05:42:32;19.50;56.40
19060;DHT22;9663;48.996;8.334;2023-07-22T05:44:58;19.60;56.60
19060;DHT22;9663;48.996;8.334;2023-07-22T05:47:25;19.70;56.30
19060;DHT22;9663;48.996;8.334;2023-07-22T05:49:51;19.80;56.30
19060;DHT22;9663;48.996;8.334;2023-07-22T05:52:17;19.90;56.30
19060;DHT22;9663;48.996;8.334;2023-07-22T05:54:43;20.00;56.30
19060;DHT22;9663;48.996;8.334;2023-07-22T05:57:08;20.10;56.20
19060;DHT22;9663;48.996;8.334;2023-07-22T05:59:34;20.20;56.20
19060;DHT22;9663;48.996;8.334;2023-07-22T06:02:02;20.40;56.20
19060;DHT22;9663;48.996;8.334;2023-07-22T06:04:29;20.40;56.00
19060;DHT22;9663;48.996;8.334;2023-07-22T06:06:54;20.60;55.80
19060;DHT22;9663;48.996;8.334;2023-07-22T06:09:20;20.60;55.70
19060;DHT22;9663;48.996;8.334;2023-07-22T06:11:46;20.70;55.60
19060;DHT22;9663;48.996;8.334;2023-07-22T06:14:12;20.70;55.50
19060;DHT22;9663;48.996;8.334;2023-07-22T06:16:38;20.80;55.40
19060;DHT22;9663;48.996;8.334;2023-07-22T06:19:04;20.80;55.40
19060;DHT22;9663;48.996;8.334;2023-07-22T06:21:29;20.90;55.40
19060;DHT22;9663;48.996;8.334;2023-07-22T06:23:55;20.90;55.30
19060;DHT22;9663;48.996;8.334;2023-07-22T06:26:22;21.00;55.30
19060;DHT22;9663;48.996;8.334;2023-07-22T06:28:48;21.00;55.80
19060;DHT22;9663;48.996;8.334;2023-07-22T06:31:13;21.10;55.20
19060;DHT22;9663;48.996;8.334;2023-07-22T06:33:39;21.10;55.10
19060;DHT22;9663;48.996;8.334;2023-07-22T06:36:06;21.20;55.10
19060;DHT22;9663;48.996;8.334;2023-07-22T06:38:32;21.30;55.20
19060;DHT22;9663;48.996;8.334;2023-07-22T06:40:58;21.40;55.20
19060;DHT22;9663;48.996;8.334;2023-07-22T06:43:24;21.50;55.20
19060;DHT22;9663;48.996;8.334;2023-07-22T06:45:49;21.60;55.00
19060;DHT22;9663;48.996;8.334;2023-07-22T06:48:15;21.70;54.90
19060;DHT22;9663;48.996;8.334;2023-07-22T06:50:50;21.80;54.80
19060;DHT22;9663;48.996;8.334;2023-07-22T06:53:16;21.80;54.70
19060;DHT22;9663;48.996;8.334;2023-07-22T06:55:51;21.90;54.60
19060;DHT22;9663;48.996;8.334;2023-07-22T06:58:21;22.00;54.70
19060;DHT22;9663;48.996;8.334;2023-07-22T07:00:52;22.20;54.70
19060;DHT22;9663;48.996;8.334;2023-07-22T07:03:23;22.40;54.60
19060;DHT22;9663;48.996;8.334;2023-07-22T07:05:56;22.50;54.50
19060;DHT22;9663;48.996;8.334;2023-07-22T07:08:22;22.70;54.30
19060;DHT22;9663;48.996;8.334;2023-07-22T07:10:49;22.80;54.10
19060;DHT22;9663;48.996;8.334;2023-07-22T07:13:15;23.00;54.00
19060;DHT22;9663;48.996;8.334;2023-07-22T07:15:45;23.10;53.80
19060;DHT22;9663;48.996;8.334;2023-07-22T07:18:14;23.20;53.60
19060;DHT22;9663;48.996;8.334;2023-07-22T07:20:44;23.30;53.40
19060;DHT22;9663;48.996;8.334;2023-07-22T07:23:10;23.40;53.30
19060;DHT22;9663;48.996;8.334;2023-07-22T07:25:36;23.50;53.30
19060;DHT22;9663;48.996;8.334;2023-07-22T07:28:03;23.60;53.20
19060;DHT22;9663;48.996;8.334;2023-07-22T07:30:29;23.70;53.00
19060;DHT22;9663;48.996;8.334;2023-07-22T07:32:55;23.70;52.70
19060;DHT22;9663;48.996;8.334;2023-07-22T07:35:22;23.80;52.50
19060;DHT22;9663;48.996;8.334;2023-07-22T07:37:47;23.70;52.40
19060;DHT22;9663;48.996;8.334;2023-07-22T07:40:13;23.80;52.30
19060;DHT22;9663;48.996;8.334;2023-07-22T07:42:39;23.70;52.00
19060;DHT22;9663;48.996;8.334;2023-07-22T07:45:05;23.70;52.00
19060;DHT22;9663;48.996;8.334;2023-07-22T07:47:31;23.70;52.00
19060;DHT22;9663;48.996;8.334;2023-07-22T07:49:57;23.50;52.00
19060;DHT22;9663;48.996;8.334;2023-07-22T07:52:23;23.50;52.10
19060;DHT22;9663;48.996;8.334;2023-07-22T07:54:49;23.50;52.30
19060;DHT22;9663;48.996;8.334;2023-07-22T07:57:15;23.40;52.50
19060;DHT22;9663;48.996;8.334;2023-07-22T07:59:41;23.50;52.50
19060;DHT22;9663;48.996;8.334;2023-07-22T08:02:07;23.50;52.60
19060;DHT22;9663;48.996;8.334;2023-07-22T08:04:35;23.50;53.20
19060;DHT22;9663;48.996;8.334;2023-07-22T08:07:00;23.60;52.50
19060;DHT22;9663;48.996;8.334;2023-07-22T08:09:26;23.70;52.50
19060;DHT22;9663;48.996;8.334;2023-07-22T08:11:52;23.70;52.30
19060;DHT22;9663;48.996;8.334;2023-07-22T08:14:18;23.80;52.30
19060;DHT22;9663;48.996;8.334;2023-07-22T08:16:44;24.00;52.30
19060;DHT22;9663;48.996;8.334;2023-07-22T08:19:10;24.10;52.20
19060;DHT22;9663;48.996;8.334;2023-07-22T08:21:35;24.30;51.90
19060;DHT22;9663;48.996;8.334;2023-07-22T08:24:02;24.30;51.50
19060;DHT22;9663;48.996;8.334;2023-07-22T08:26:27;24.40;51.40
19060;DHT22;9663;48.996;8.334;2023-07-22T08:28:53;24.40;51.20
19060;DHT22;9663;48.996;8.334;2023-07-22T08:31:19;24.40;51.20
19060;DHT22;9663;48.996;8.334;2023-07-22T08:33:44;24.40;51.40
19060;DHT22;9663;48.996;8.334;2023-07-22T08:36:10;24.50;51.60
19060;DHT22;9663;48.996;8.334;2023-07-22T08:38:35;24.60;51.50
19060;DHT22;9663;48.996;8.334;2023-07-22T08:41:02;24.70;51.40
19060;DHT22;9663;48.996;8.334;2023-07-22T08:43:29;24.80;51.40
19060;DHT22;9663;48.996;8.334;2023-07-22T08:45:59;25.00;51.20
19060;DHT22;9663;48.996;8.334;2023-07-22T08:48:27;25.00;50.80
19060;DHT22;9663;48.996;8.334;2023-07-22T08:51:02;25.20;51.10
19060;DHT22;9663;48.996;8.334;2023-07-22T08:53:30;25.40;50.80
19060;DHT22;9663;48.996;8.334;2023-07-22T08:55:58;25.60;50.70
19060;DHT22;9663;48.996;8.334;2023-07-22T08:58:24;25.80;50.60
19060;DHT22;9663;48.996;8.334;2023-07-22T09:00:51;26.00;50.30
19060;DHT22;9663;48.996;8.334;2023-07-22T09:03:19;26.20;50.10
19060;DHT22;9663;48.996;8.334;2023-07-22T09:05:45;26.40;49.70
19060;DHT22;9663;48.996;8.334;2023-07-22T09:08:11;26.50;49.60
19060;DHT22;9663;48.996;8.334;2023-07-22T09:10:38;26.60;49.40
19060;DHT22;9663;48.996;8.334;2023-07-22T09:13:04;26.80;49.20
19060;DHT22;9663;48.996;8.334;2023-07-22T09:15:34;26.90;49.20
19060;DHT22;9663;48.996;8.334;2023-07-22T09:18:04;27.00;48.70
19060;DHT22;9663;48.996;8.334;2023-07-22T09:20:30;27.10;48.50
19060;DHT22;9663;48.996;8.334;2023-07-22T09:22:56;27.20;48.30
19060;DHT22;9663;48.996;8.334;2023-07-22T09:25:24;27.30;47.80
19060;DHT22;9663;48.996;8.334;2023-07-22T09:27:55;27.20;47.50
19060;DHT22;9663;48.996;8.334;2023-07-22T09:30:36;27.30;47.20
19060;DHT22;9663;48.996;8.334;2023-07-22T09:33:05;27.30;47.00
19060;DHT22;9663;48.996;8.334;2023-07-22T09:35:45;27.30;47.20
19060;DHT22;9663;48.996;8.334;2023-07-22T09:38:12;27.30;46.40
19060;DHT22;9663;48.996;8.334;2023-07-22T09:40:40;27.30;46.80
19060;DHT22;9663;48.996;8.334;2023-07-22T09:43:09;27.40;46.90
19060;DHT22;9663;48.996;8.334;2023-07-22T09:45:38;27.40;46.80
19060;DHT22;9663;48.996;8.334;2023-07-22T09:48:04;27.40;46.80
19060;DHT22;9663;48.996;8.334;2023-07-22T09:50:31;27.30;47.30
19060;DHT22;9663;48.996;8.334;2023-07-22T09:52:58;27.30;47.00
19060;DHT22;9663;48.996;8.334;2023-07-22T09:55:27;27.30;47.10
19060;DHT22;9663;48.996;8.334;2023-07-22T09:58:02;27.30;47.30
19060;DHT22;9663;48.996;8.334;2023-07-22T10:00:35;27.50;47.10
19060;DHT22;9663;48.996;8.334;2023-07-22T10:03:03;27.60;46.70
19060;DHT22;9663;48.996;8.334;2023-07-22T10:05:35;27.70;47.10
19060;DHT22;9663;48.996;8.334;2023-07-22T10:08:05;27.80;47.00
19060;DHT22;9663;48.996;8.334;2023-07-22T10:10:38;27.90;46.70
19060;DHT22;9663;48.996;8.334;2023-07-22T10:13:04;28.10;46.10
19060;DHT22;9663;48.996;8.334;2023-07-22T10:15:32;28.10;45.90
19060;DHT22;9663;48.996;8.334;2023-07-22T10:18:00;28.20;46.10
19060;DHT22;9663;48.996;8.334;2023-07-22T10:20:28;28.20;45.80
19060;DHT22;9663;48.996;8.334;2023-07-22T10:22:55;28.30;45.70
19060;DHT22;9663;48.996;8.334;2023-07-22T10:25:22;28.40;45.80
19060;DHT22;9663;48.996;8.334;2023-07-22T10:27:49;28.50;45.60
19060;DHT22;9663;48.996;8.334;2023-07-22T10:30:17;28.60;45.40
19060;DHT22;9663;48.996;8.334;2023-07-22T10:32:46;28.70;45.40
19060;DHT22;9663;48.996;8.334;2023-07-22T10:37:48;28.80;44.50
19060;DHT22;9663;48.996;8.334;2023-07-22T10:40:29;28.80;44.50
19060;DHT22;9663;48.996;8.334;2023-07-22T10:43:06;28.90;43.60
19060;DHT22;9663;48.996;8.334;2023-07-22T10:45:52;28.90;43.90
19060;DHT22;9663;48.996;8.334;2023-07-22T10:48:23;29.00;43.40
19060;DHT22;9663;48.996;8.334;2023-07-22T10:50:55;29.20;44.10
19060;DHT22;9663;48.996;8.334;2023-07-22T10:56:06;29.30;43.30
19060;DHT22;9663;48.996;8.334;2023-07-22T11:01:32;29.30;41.90
19060;DHT22;9663;48.996;8.334;2023-07-22T11:14:39;29.90;42.00
19060;DHT22;9663;48.996;8.334;2023-07-22T11:17:10;29.90;41.90
19060;DHT22;9663;48.996;8.334;2023-07-22T11:19:37;30.00;42.00
19060;DHT22;9663;48.996;8.334;2023-07-22T11:22:04;30.10;41.90
19060;DHT22;9663;48.996;8.334;2023-07-22T11:24:35;30.20;41.80
19060;DHT22;9663;48.996;8.334;2023-07-22T11:27:05;30.30;41.10
19060;DHT22;9663;48.996;8.334;2023-07-22T11:29:32;30.40;41.10
19060;DHT22;9663;48.996;8.334;2023-07-22T11:31:58;30.40;40.90
19060;DHT22;9663;48.996;8.334;2023-07-22T11:34:25;30.50;40.80
19060;DHT22;9663;48.996;8.334;2023-07-22T11:36:53;30.70;41.00
19060;DHT22;9663;48.996;8.334;2023-07-22T11:39:22;31.10;41.30
19060;DHT22;9663;48.996;8.334;2023-07-22T11:41:50;31.60;41.10
19060;DHT22;9663;48.996;8.334;2023-07-22T11:44:19;31.90;40.30
19060;DHT22;9663;48.996;8.334;2023-07-22T11:49:39;31.90;38.50
19060;DHT22;9663;48.996;8.334;2023-07-22T11:52:06;31.70;38.30
19060;DHT22;9663;48.996;8.334;2023-07-22T11:54:46;31.40;38.60
19060;DHT22;9663;48.996;8.334;2023-07-22T11:57:20;31.10;38.30
19060;DHT22;9663;48.996;8.334;2023-07-22T11:59:51;30.90;38.40
19060;DHT22;9663;48.996;8.334;2023-07-22T12:02:23;30.80;38.60
19060;DHT22;9663;48.996;8.334;2023-07-22T12:05:03;30.70;38.60
19060;DHT22;9663;48.996;8.334;2023-07-22T12:07:35;30.60;38.80
19060;DHT22;9663;48.996;8.334;2023-07-22T12:10:04;30.70;38.60
19060;DHT22;9663;48.996;8.334;2023-07-22T12:15:22;31.30;40.70
19060;DHT22;9663;48.996;8.334;2023-07-22T12:17:58;32.00;38.50
19060;DHT22;9663;48.996;8.334;2023-07-22T12:22:53;32.70;38.40
19060;DHT22;9663;48.996;8.334;2023-07-22T12:25:20;33.00;38.00
19060;DHT22;9663;48.996;8.334;2023-07-22T12:27:46;33.30;38.30
19060;DHT22;9663;48.996;8.334;2023-07-22T12:30:11;33.80;38.00
19060;DHT22;9663;48.996;8.334;2023-07-22T12:32:38;34.30;37.80
19060;DHT22;9663;48.996;8.334;2023-07-22T12:35:05;34.90;37.50
19060;DHT22;9663;48.996;8.334;2023-07-22T12:37:31;35.50;37.10
19060;DHT22;9663;48.996;8.334;2023-07-22T12:39:57;36.00;36.40
19060;DHT22;9663;48.996;8.334;2023-07-22T12:42:23;36.50;35.30
19060;DHT22;9663;48.996;8.334;2023-07-22T12:44:48;36.70;33.90
19060;DHT22;9663;48.996;8.334;2023-07-22T12:47:14;36.50;33.30
19060;DHT22;9663;48.996;8.334;2023-07-22T12:49:40;36.50;33.40
19060;DHT22;9663;48.996;8.334;2023-07-22T12:52:06;36.50;33.50
19060;DHT22;9663;48.996;8.334;2023-07-22T12:54:35;36.60;33.70
19060;DHT22;9663;48.996;8.334;2023-07-22T12:57:01;36.90;33.00
19060;DHT22;9663;48.996;8.334;2023-07-22T12:59:27;37.20;33.10
19060;DHT22;9663;48.996;8.334;2023-07-22T13:01:53;37.70;32.80
19060;DHT22;9663;48.996;8.334;2023-07-22T13:04:19;37.90;32.30
19060;DHT22;9663;48.996;8.334;2023-07-22T13:06:45;38.00;31.00
19060;DHT22;9663;48.996;8.334;2023-07-22T13:09:11;37.70;29.90
19060;DHT22;9663;48.996;8.334;2023-07-22T13:11:37;37.20;29.60
19060;DHT22;9663;48.996;8.334;2023-07-22T13:14:03;36.70;29.60
19060;DHT22;9663;48.996;8.334;2023-07-22T13:16:28;36.20;29.60
19060;DHT22;9663;48.996;8.334;2023-07-22T13:18:54;35.80;30.00
19060;DHT22;9663;48.996;8.334;2023-07-22T13:21:20;35.70;30.20
19060;DHT22;9663;48.996;8.334;2023-07-22T13:23:46;35.80;30.60
19060;DHT22;9663;48.996;8.334;2023-07-22T13:26:11;36.10;31.00
19060;DHT22;9663;48.996;8.334;2023-07-22T13:28:37;36.40;31.00
19060;DHT22;9663;48.996;8.334;2023-07-22T13:31:02;36.50;29.90
19060;DHT22;9663;48.996;8.334;2023-07-22T13:33:28;36.40;29.40
19060;DHT22;9663;48.996;8.334;2023-07-22T13:35:54;36.10;29.70
19060;DHT22;9663;48.996;8.334;2023-07-22T13:38:22;36.10;29.80
19060;DHT22;9663;48.996;8.334;2023-07-22T13:40:48;36.10;29.80
19060;DHT22;9663;48.996;8.334;2023-07-22T13:43:13;36.30;30.00
19060;DHT22;9663;48.996;8.334;2023-07-22T13:45:39;36.50;30.00
19060;DHT22;9663;48.996;8.334;2023-07-22T13:48:06;36.80;29.90
19060;DHT22;9663;48.996;8.334;2023-07-22T13:50:32;37.30;30.00
19060;DHT22;9663;48.996;8.334;2023-07-22T13:52:57;37.70;29.80
19060;DHT22;9663;48.996;8.334;2023-07-22T13:55:23;38.10;29.00
19060;DHT22;9663;48.996;8.334;2023-07-22T13:57:49;38.20;28.00
19060;DHT22;9663;48.996;8.334;2023-07-22T14:00:15;37.90;27.60
19060;DHT22;9663;48.996;8.334;2023-07-22T14:02:41;37.50;27.60
19060;DHT22;9663;48.996;8.334;2023-07-22T14:05:07;37.20;27.80
19060;DHT22;9663;48.996;8.334;2023-07-22T14:07:34;36.90;27.90
19060;DHT22;9663;48.996;8.334;2023-07-22T14:10:01;36.80;28.20
19060;DHT22;9663;48.996;8.334;2023-07-22T14:12:26;36.70;27.90
19060;DHT22;9663;48.996;8.334;2023-07-22T14:14:52;36.50;27.80
19060;DHT22;9663;48.996;8.334;2023-07-22T14:17:17;36.30;27.60
19060;DHT22;9663;48.996;8.334;2023-07-22T14:19:43;36.00;27.40
19060;DHT22;9663;48.996;8.334;2023-07-22T14:22:09;35.80;27.40
19060;DHT22;9663;48.996;8.334;2023-07-22T14:24:35;35.40;26.90
19060;DHT22;9663;48.996;8.334;2023-07-22T14:27:00;34.90;27.10
19060;DHT22;9663;48.996;8.334;2023-07-22T14:29:26;34.70;27.60
19060;DHT22;9663;48.996;8.334;2023-07-22T14:31:52;34.60;27.90
19060;DHT22;9663;48.996;8.334;2023-07-22T14:34:17;34.70;28.40
19060;DHT22;9663;48.996;8.334;2023-07-22T14:36:43;35.00;28.90
19060;DHT22;9663;48.996;8.334;2023-07-22T14:39:09;35.50;28.70
19060;DHT22;9663;48.996;8.334;2023-07-22T14:41:35;35.90;28.20
19060;DHT22;9663;48.996;8.334;2023-07-22T14:44:01;36.20;27.60
19060;DHT22;9663;48.996;8.334;2023-07-22T14:46:26;36.30;27.30
19060;DHT22;9663;48.996;8.334;2023-07-22T14:48:52;36.40;27.40
19060;DHT22;9663;48.996;8.334;2023-07-22T14:51:18;36.50;27.10
19060;DHT22;9663;48.996;8.334;2023-07-22T14:53:44;36.50;26.80
19060;DHT22;9663;48.996;8.334;2023-07-22T14:56:09;36.50;26.40
19060;DHT22;9663;48.996;8.334;2023-07-22T14:58:35;36.50;26.70
19060;DHT22;9663;48.996;8.334;2023-07-22T15:01:01;36.50;26.80
19060;DHT22;9663;48.996;8.334;2023-07-22T15:03:26;36.70;26.80
19060;DHT22;9663;48.996;8.334;2023-07-22T15:05:52;36.90;26.70
19060;DHT22;9663;48.996;8.334;2023-07-22T15:08:18;37.10;26.70
19060;DHT22;9663;48.996;8.334;2023-07-22T15:10:43;37.50;26.90
19060;DHT22;9663;48.996;8.334;2023-07-22T15:13:09;37.70;26.80
19060;DHT22;9663;48.996;8.334;2023-07-22T15:15:35;38.20;26.80
19060;DHT22;9663;48.996;8.334;2023-07-22T15:18:01;38.50;25.80
19060;DHT22;9663;48.996;8.334;2023-07-22T15:20:26;38.70;25.40
19060;DHT22;9663;48.996;8.334;2023-07-22T15:22:52;38.70;25.10
19060;DHT22;9663;48.996;8.334;2023-07-22T15:25:18;38.50;24.70
19060;DHT22;9663;48.996;8.334;2023-07-22T15:27:44;38.30;24.60
19060;DHT22;9663;48.996;8.334;2023-07-22T15:30:10;38.10;24.70
19060;DHT22;9663;48.996;8.334;2023-07-22T15:32:36;38.00;24.80
19060;DHT22;9663;48.996;8.334;2023-07-22T15:35:02;38.10;24.90
19060;DHT22;9663;48.996;8.334;2023-07-22T15:37:27;38.20;25.00
19060;DHT22;9663;48.996;8.334;2023-07-22T15:39:53;38.40;24.90
19060;DHT22;9663;48.996;8.334;2023-07-22T15:42:19;38.60;24.80
19060;DHT22;9663;48.996;8.334;2023-07-22T15:44:44;38.90;25.00
19060;DHT22;9663;48.996;8.334;2023-07-22T15:47:10;39.20;24.80
19060;DHT22;9663;48.996;8.334;2023-07-22T15:49:35;39.40;24.60
19060;DHT22;9663;48.996;8.334;2023-07-22T15:52:01;39.60;24.20
19060;DHT22;9663;48.996;8.334;2023-07-22T15:54:27;39.80;23.70
19060;DHT22;9663;48.996;8.334;2023-07-22T15:56:53;39.70;23.40
19060;DHT22;9663;48.996;8.334;2023-07-22T15:59:20;39.70;23.20
19060;DHT22;9663;48.996;8.334;2023-07-22T16:01:46;39.70;23.10
19060;DHT22;9663;48.996;8.334;2023-07-22T16:04:11;39.60;23.20
19060;DHT22;9663;48.996;8.334;2023-07-22T16:06:37;39.60;23.10
19060;DHT22;9663;48.996;8.334;2023-07-22T16:09:02;39.60;23.10